sensor_id;sensor_type;location;lat;lon;timestamp;pressure;altitude;pressure_sealevel;temperature;humidity
72677;BME280;60755;51.374;10.662;2023-09-18T00:01:10;96862.94;;;16.43;100.00
72677;BME280;60755;51.374;10.662;2023-09-18T00:03:37;96864.00;;;16.42;100.00
72677;BME280;60755;51.374;10.662;2023-09-18T00:06:04;96848.22;;;16.56;100.00
72677;BME280;60755;51.374;10.662;2023-09-18T00:08:32;96839.59;;;16.45;100.00
72677;BME280;60755;51.374;10.662;2023-09-18T00:11:00;96832.75;;;16.39;100.00
72677;BME280;60755;51.374;10.662;2023-09-18T00:13:28;96837.03;;;16.35;100.00
72677;BME280;60755;51.374;10.662;2023-09-18T00:15:56;96842.34;;;16.35;100.00
72677;BME280;60755;51.374;10.662;2023-09-18T00:18:25;96834.13;;;16.36;100.00
72677;BME280;60755;51.374;10.662;2023-09-18T00:20:53;96842.34;;;16.35;100.00
72677;BME280;60755;51.374;10.662;2023-09-18T00:23:20;96839.28;;;16.22;100.00
72677;BME280;60755;51.374;10.662;2023-09-18T00:25:47;96829.75;;;16.21;100.00
72677;BME280;60755;51.374;10.662;2023-09-18T00:28:14;96832.41;;;16.21;100.00
72677;BME280;60755;51.374;10.662;2023-09-18T00:30:47;96826.56;;;16.19;100.00
72677;BME280;60755;51.374;10.662;2023-09-18T00:33:15;96820.22;;;16.20;100.00
72677;BME280;60755;51.374;10.662;2023-09-18T00:35:46;96816.78;;;16.44;100.00
72677;BME280;60755;51.374;10.662;2023-09-18T00:38:14;96805.78;;;16.32;100.00
72677;BME280;60755;51.374;10.662;2023-09-18T00:40:41;96803.69;;;16.29;100.00
72677;BME280;60755;51.374;10.662;2023-09-18T00:43:09;96800.47;;;16.32;100.00
72677;BME280;60755;51.374;10.662;2023-09-18T00:45:40;96790.06;;;16.11;100.00
72677;BME280;60755;51.374;10.662;2023-09-18T00:48:10;96803.84;;;16.13;100.00
72677;BME280;60755;51.374;10.662;2023-09-18T00:50:38;96793.19;;;16.18;100.00
72677;BME280;60755;51.374;10.662;2023-09-18T00:53:07;96781.28;;;16.16;100.00
72677;BME280;60755;51.374;10.662;2023-09-18T00:55:36;96779.94;;;16.18;100.00
72677;BME280;60755;51.374;10.662;2023-09-18T00:58:05;96773.66;;;16.09;100.00
72677;BME280;60755;51.374;10.662;2023-09-18T01:00:33;96772.31;;;16.12;100.00
72677;BME280;60755;51.374;10.662;2023-09-18T01:03:01;96775.81;;;16.07;100.00
72677;BME280;60755;51.374;10.662;2023-09-18T01:05:32;96771.00;;;16.09;100.00
72677;BME280;60755;51.374;10.662;2023-09-18T01:07:59;96768.88;;;16.11;100.00
72677;BME280;60755;51.374;10.662;2023-09-18T01:10:32;96759.88;;;16.12;100.00
72677;BME280;60755;51.374;10.662;2023-09-18T01:13:04;96758.72;;;16.18;100.00
72677;BME280;60755;51.374;10.662;2023-09-18T01:15:43;96756.94;;;16.14;100.00
72677;BME280;60755;51.374;10.662;2023-09-18T01:18:11;96768.31;;;16.14;100.00
72677;BME280;60755;51.374;10.662;2023-09-18T01:20:41;96765.97;;;16.13;100.00
72677;BME280;60755;51.374;10.662;2023-09-18T01:23:09;96757.13;;;16.17;100.00
72677;BME280;60755;51.374;10.662;2023-09-18T01:25:37;96748.72;;;16.10;100.00
72677;BME280;60755;51.374;10.662;2023-09-18T01:28:04;96749.69;;;16.19;100.00
72677;BME280;60755;51.374;10.662;2023-09-18T01:30:32;96750.91;;;16.03;100.00
72677;BME280;60755;51.374;10.662;2023-09-18T01:33:02;96740.78;;;16.10;100.00
72677;BME280;60755;51.374;10.662;2023-09-18T01:35:31;96748.81;;;16.05;100.00
72677;BME280;60755;51.374;10.662;2023-09-18T01:38:00;96742.47;;;16.01;100.00
72677;BME280;60755;51.374;10.662;2023-09-18T01:40:30;96747.09;;;15.90;100.00
72677;BME280;60755;51.374;10.662;2023-09-18T01:42:58;96739.88;;;15.96;100.00
72677;BME280;60755;51.374;10.662;2023-09-18T01:45:26;96737.31;;;15.86;100.00
72677;BME280;60755;51.374;10.662;2023-09-18T01:47:53;96729.69;;;15.79;100.00
72677;BME280;60755;51.374;10.662;2023-09-18T01:50:20;96738.97;;;15.82;100.00
72677;BME280;60755;51.374;10.662;2023-09-18T01:52:47;96734.13;;;15.89;100.00
72677;BME280;60755;51.374;10.662;2023-09-18T01:55:15;96729.84;;;15.93;100.00
72677;BME280;60755;51.374;10.662;2023-09-18T01:57:43;96727.69;;;15.95;100.00
72677;BME280;60755;51.374;10.662;2023-09-18T02:00:12;96722.47;;;15.90;100.00
72677;BME280;60755;51.374;10.662;2023-09-18T02:02:39;96719.28;;;15.88;100.00
72677;BME280;60755;51.374;10.662;2023-09-18T02:05:07;96716.19;;;15.81;100.00
72677;BME280;60755;51.374;10.662;2023-09-18T02:07:34;96719.84;;;15.85;100.00
72677;BME280;60755;51.374;10.662;2023-09-18T02:10:01;96714.59;;;15.80;100.00
72677;BME280;60755;51.374;10.662;2023-09-18T02:12:29;96712.75;;;15.80;100.00
72677;BME280;60755;51.374;10.662;2023-09-18T02:14:58;96713.09;;;15.74;100.00
72677;BME280;60755;51.374;10.662;2023-09-18T02:17:30;96712.00;;;15.75;100.00
72677;BME280;60755;51.374;10.662;2023-09-18T02:19:57;96710.19;;;15.70;100.00
72677;BME280;60755;51.374;10.662;2023-09-18T02:22:26;96713.91;;;15.69;100.00
72677;BME280;60755;51.374;10.662;2023-09-18T02:24:53;96704.69;;;15.66;100.00
72677;BME280;60755;51.374;10.662;2023-09-18T02:27:20;96715.81;;;15.63;100.00
72677;BME280;60755;51.374;10.662;2023-09-18T02:29:48;96708.69;;;15.59;100.00
72677;BME280;60755;51.374;10.662;2023-09-18T02:32:17;96714.22;;;15.62;100.00
72677;BME280;60755;51.374;10.662;2023-09-18T02:34:45;96706.56;;;15.61;100.00
72677;BME280;60755;51.374;10.662;2023-09-18T02:37:12;96702.59;;;15.58;100.00
72677;BME280;60755;51.374;10.662;2023-09-18T02:39:39;96697.63;;;15.52;100.00
72677;BME280;60755;51.374;10.662;2023-09-18T02:42:07;96697.06;;;15.55;100.00
72677;BME280;60755;51.374;10.662;2023-09-18T02:44:34;96707.47;;;15.46;100.00
72677;BME280;60755;51.374;10.662;2023-09-18T02:47:02;96699.06;;;15.39;100.00
72677;BME280;60755;51.374;10.662;2023-09-18T02:49:30;96697.47;;;15.38;100.00
72677;BME280;60755;51.374;10.662;2023-09-18T02:51:59;96696.19;;;15.35;100.00
72677;BME280;60755;51.374;10.662;2023-09-18T02:54:26;96691.66;;;15.41;100.00
72677;BME280;60755;51.374;10.662;2023-09-18T02:56:53;96680.59;;;15.34;100.00
72677;BME280;60755;51.374;10.662;2023-09-18T02:59:21;96679.84;;;15.28;100.00
72677;BME280;60755;51.374;10.662;2023-09-18T03:01:48;96679.47;;;15.40;100.00
72677;BME280;60755;51.374;10.662;2023-09-18T03:04:16;96675.19;;;15.44;100.00
72677;BME280;60755;51.374;10.662;2023-09-18T03:06:44;96681.97;;;15.55;100.00
72677;BME280;60755;51.374;10.662;2023-09-18T03:09:11;96677.84;;;15.73;100.00
72677;BME280;60755;51.374;10.662;2023-09-18T03:11:39;96674.13;;;15.74;100.00
72677;BME280;60755;51.374;10.662;2023-09-18T03:14:06;96673.63;;;15.72;100.00
72677;BME280;60755;51.374;10.662;2023-09-18T03:16:33;96669.63;;;15.75;100.00
72677;BME280;60755;51.374;10.662;2023-09-18T03:19:01;96668.72;;;15.84;100.00
72677;BME280;60755;51.374;10.662;2023-09-18T03:21:30;96666.69;;;16.00;100.00
72677;BME280;60755;51.374;10.662;2023-09-18T03:24:00;96664.06;;;15.95;100.00
72677;BME280;60755;51.374;10.662;2023-09-18T03:26:28;96656.22;;;15.90;100.00
72677;BME280;60755;51.374;10.662;2023-09-18T03:28:56;96659.94;;;15.89;100.00
72677;BME280;60755;51.374;10.662;2023-09-18T03:31:23;96657.13;;;15.80;100.00
72677;BME280;60755;51.374;10.662;2023-09-18T03:33:50;96644.19;;;15.74;100.00
72677;BME280;60755;51.374;10.662;2023-09-18T03:36:21;96643.63;;;15.77;100.00
72677;BME280;60755;51.374;10.662;2023-09-18T03:38:48;96625.66;;;15.74;100.00
72677;BME280;60755;51.374;10.662;2023-09-18T03:41:17;96620.66;;;15.72;100.00
72677;BME280;60755;51.374;10.662;2023-09-18T03:43:44;96614.28;;;15.73;100.00
72677;BME280;60755;51.374;10.662;2023-09-18T03:46:11;96612.25;;;15.65;100.00
72677;BME280;60755;51.374;10.662;2023-09-18T03:48:44;96600.91;;;15.83;100.00
72677;BME280;60755;51.374;10.662;2023-09-18T03:51:12;96601.50;;;15.99;100.00
72677;BME280;60755;51.374;10.662;2023-09-18T03:53:41;96596.13;;;16.04;100.00
72677;BME280;60755;51.374;10.662;2023-09-18T03:56:09;96600.91;;;16.02;100.00
72677;BME280;60755;51.374;10.662;2023-09-18T03:58:37;96600.84;;;16.07;100.00
72677;BME280;60755;51.374;10.662;2023-09-18T04:01:05;96603.44;;;16.12;100.00
72677;BME280;60755;51.374;10.662;2023-09-18T04:03:32;96592.69;;;16.22;100.00
72677;BME280;60755;51.374;10.662;2023-09-18T04:05:59;96596.50;;;16.16;100.00
72677;BME280;60755;51.374;10.662;2023-09-18T04:08:26;96591.34;;;16.06;100.00
72677;BME280;60755;51.374;10.662;2023-09-18T04:10:54;96588.25;;;15.99;100.00
72677;BME280;60755;51.374;10.662;2023-09-18T04:13:24;96587.81;;;15.92;100.00
72677;BME280;60755;51.374;10.662;2023-09-18T04:15:54;96592.03;;;15.93;100.00
72677;BME280;60755;51.374;10.662;2023-09-18T04:18:23;96584.56;;;15.95;100.00
72677;BME280;60755;51.374;10.662;2023-09-18T04:20:50;96582.22;;;15.93;100.00
72677;BME280;60755;51.374;10.662;2023-09-18T04:23:21;96580.13;;;15.90;100.00
72677;BME280;60755;51.374;10.662;2023-09-18T04:25:49;96575.69;;;15.86;100.00
72677;BME280;60755;51.374;10.662;2023-09-18T04:28:18;96572.81;;;15.82;100.00
72677;BME280;60755;51.374;10.662;2023-09-18T04:30:46;96564.53;;;15.89;100.00
72677;BME280;60755;51.374;10.662;2023-09-18T04:33:15;96557.91;;;15.68;100.00
72677;BME280;60755;51.374;10.662;2023-09-18T04:35:43;96549.44;;;15.65;100.00
72677;BME280;60755;51.374;10.662;2023-09-18T04:38:11;96540.44;;;15.66;100.00
72677;BME280;60755;51.374;10.662;2023-09-18T04:40:40;96539.56;;;15.71;100.00
72677;BME280;60755;51.374;10.662;2023-09-18T04:43:08;96536.13;;;15.71;100.00
72677;BME280;60755;51.374;10.662;2023-09-18T04:45:35;96538.13;;;15.79;100.00
72677;BME280;60755;51.374;10.662;2023-09-18T04:48:03;96527.97;;;15.86;100.00
72677;BME280;60755;51.374;10.662;2023-09-18T04:50:33;96524.25;;;15.87;100.00
72677;BME280;60755;51.374;10.662;2023-09-18T04:53:01;96538.03;;;15.89;100.00
72677;BME280;60755;51.374;10.662;2023-09-18T04:55:30;96532.44;;;15.90;100.00
72677;BME280;60755;51.374;10.662;2023-09-18T04:57:57;96525.78;;;15.93;100.00
72677;BME280;60755;51.374;10.662;2023-09-18T05:00:26;96527.19;;;15.85;100.00
72677;BME280;60755;51.374;10.662;2023-09-18T05:02:55;96522.63;;;15.91;100.00
72677;BME280;60755;51.374;10.662;2023-09-18T05:05:23;96538.22;;;15.92;100.00
72677;BME280;60755;51.374;10.662;2023-09-18T05:07:51;96549.34;;;16.13;100.00
72677;BME280;60755;51.374;10.662;2023-09-18T05:10:19;96557.78;;;16.34;100.00
72677;BME280;60755;51.374;10.662;2023-09-18T05:12:48;96548.38;;;16.61;100.00
72677;BME280;60755;51.374;10.662;2023-09-18T05:15:16;96557.72;;;16.91;98.47
72677;BME280;60755;51.374;10.662;2023-09-18T05:17:45;96547.03;;;17.10;98.32
72677;BME280;60755;51.374;10.662;2023-09-18T05:20:16;96551.69;;;17.45;95.97
72677;BME280;60755;51.374;10.662;2023-09-18T05:22:44;96545.09;;;17.70;93.90
72677;BME280;60755;51.374;10.662;2023-09-18T05:25:13;96539.38;;;17.91;92.61
72677;BME280;60755;51.374;10.662;2023-09-18T05:27:41;96532.28;;;18.22;90.77
72677;BME280;60755;51.374;10.662;2023-09-18T05:30:12;96532.44;;;18.62;88.48
72677;BME280;60755;51.374;10.662;2023-09-18T05:32:41;96530.16;;;18.69;86.40
72677;BME280;60755;51.374;10.662;2023-09-18T05:35:09;96527.44;;;18.91;86.27
72677;BME280;60755;51.374;10.662;2023-09-18T05:37:38;96537.50;;;18.94;86.31
72677;BME280;60755;51.374;10.662;2023-09-18T05:40:07;96534.13;;;19.11;85.69
72677;BME280;60755;51.374;10.662;2023-09-18T05:42:37;96522.13;;;19.31;84.02
72677;BME280;60755;51.374;10.662;2023-09-18T05:45:05;96526.34;;;19.23;84.63
72677;BME280;60755;51.374;10.662;2023-09-18T05:47:33;96513.69;;;19.29;83.33
72677;BME280;60755;51.374;10.662;2023-09-18T05:50:01;96499.88;;;19.27;84.56
72677;BME280;60755;51.374;10.662;2023-09-18T05:52:31;96489.00;;;19.15;84.36
72677;BME280;60755;51.374;10.662;2023-09-18T05:54:58;96484.44;;;19.07;85.80
72677;BME280;60755;51.374;10.662;2023-09-18T05:57:26;96477.88;;;19.13;85.46
72677;BME280;60755;51.374;10.662;2023-09-18T05:59:55;96467.91;;;18.87;87.20
72677;BME280;60755;51.374;10.662;2023-09-18T06:02:23;96473.53;;;18.77;88.58
72677;BME280;60755;51.374;10.662;2023-09-18T06:04:54;96482.41;;;18.72;87.27
72677;BME280;60755;51.374;10.662;2023-09-18T06:07:24;96475.03;;;18.69;87.95
72677;BME280;60755;51.374;10.662;2023-09-18T06:09:51;96480.19;;;18.66;88.10
72677;BME280;60755;51.374;10.662;2023-09-18T06:12:18;96472.72;;;18.54;87.13
72677;BME280;60755;51.374;10.662;2023-09-18T06:14:46;96472.53;;;18.51;87.86
72677;BME280;60755;51.374;10.662;2023-09-18T06:17:15;96482.19;;;18.38;90.52
72677;BME280;60755;51.374;10.662;2023-09-18T06:19:42;96482.22;;;18.47;89.61
72677;BME280;60755;51.374;10.662;2023-09-18T06:22:10;96467.38;;;18.45;90.69
72677;BME280;60755;51.374;10.662;2023-09-18T06:24:37;96464.31;;;18.61;89.73
72677;BME280;60755;51.374;10.662;2023-09-18T06:27:05;96456.41;;;18.69;87.60
72677;BME280;60755;51.374;10.662;2023-09-18T06:29:32;96457.09;;;18.84;87.63
72677;BME280;60755;51.374;10.662;2023-09-18T06:32:00;96455.94;;;18.76;89.91
72677;BME280;60755;51.374;10.662;2023-09-18T06:34:29;96452.91;;;19.00;89.05
72677;BME280;60755;51.374;10.662;2023-09-18T06:36:56;96454.53;;;19.10;87.22
72677;BME280;60755;51.374;10.662;2023-09-18T06:39:23;96446.22;;;19.11;85.80
72677;BME280;60755;51.374;10.662;2023-09-18T06:41:52;96445.59;;;19.14;87.52
72677;BME280;60755;51.374;10.662;2023-09-18T06:44:19;96449.25;;;19.18;87.72
72677;BME280;60755;51.374;10.662;2023-09-18T06:46:47;96447.81;;;19.21;88.10
72677;BME280;60755;51.374;10.662;2023-09-18T06:49:14;96440.06;;;18.93;88.82
72677;BME280;60755;51.374;10.662;2023-09-18T06:51:43;96433.66;;;18.94;89.03
72677;BME280;60755;51.374;10.662;2023-09-18T06:54:10;96430.97;;;18.86;86.96
72677;BME280;60755;51.374;10.662;2023-09-18T06:56:37;96439.38;;;18.79;88.90
72677;BME280;60755;51.374;10.662;2023-09-18T06:59:05;96438.59;;;18.79;89.09
72677;BME280;60755;51.374;10.662;2023-09-18T07:01:32;96440.13;;;18.71;89.56
72677;BME280;60755;51.374;10.662;2023-09-18T07:03:59;96428.72;;;18.79;88.87
72677;BME280;60755;51.374;10.662;2023-09-18T07:06:27;96415.78;;;18.64;89.12
72677;BME280;60755;51.374;10.662;2023-09-18T07:08:55;96418.22;;;18.52;90.09
72677;BME280;60755;51.374;10.662;2023-09-18T07:11:23;96415.09;;;18.50;91.08
72677;BME280;60755;51.374;10.662;2023-09-18T07:13:50;96418.50;;;18.41;89.96
72677;BME280;60755;51.374;10.662;2023-09-18T07:16:17;96418.31;;;18.38;91.36
72677;BME280;60755;51.374;10.662;2023-09-18T07:18:44;96419.09;;;18.38;90.95
72677;BME280;60755;51.374;10.662;2023-09-18T07:21:12;96420.53;;;18.44;91.47
72677;BME280;60755;51.374;10.662;2023-09-18T07:23:39;96425.13;;;18.53;91.31
72677;BME280;60755;51.374;10.662;2023-09-18T07:26:08;96435.91;;;18.70;89.83
72677;BME280;60755;51.374;10.662;2023-09-18T07:28:35;96451.13;;;18.78;89.62
72677;BME280;60755;51.374;10.662;2023-09-18T07:31:05;96459.13;;;18.78;88.55
72677;BME280;60755;51.374;10.662;2023-09-18T07:33:33;96448.94;;;18.80;89.27
72677;BME280;60755;51.374;10.662;2023-09-18T07:36:00;96454.06;;;19.16;87.05
72677;BME280;60755;51.374;10.662;2023-09-18T07:38:27;96460.81;;;19.14;86.21
72677;BME280;60755;51.374;10.662;2023-09-18T07:40:55;96462.59;;;19.27;86.47
72677;BME280;60755;51.374;10.662;2023-09-18T07:43:23;96450.53;;;19.38;86.12
72677;BME280;60755;51.374;10.662;2023-09-18T07:45:52;96461.03;;;19.35;85.02
72677;BME280;60755;51.374;10.662;2023-09-18T07:48:22;96458.09;;;19.53;85.24
72677;BME280;60755;51.374;10.662;2023-09-18T07:50:49;96477.13;;;19.69;85.01
72677;BME280;60755;51.374;10.662;2023-09-18T07:53:16;96472.25;;;19.80;85.35
72677;BME280;60755;51.374;10.662;2023-09-18T07:55:44;96479.97;;;19.90;84.73
72677;BME280;60755;51.374;10.662;2023-09-18T07:58:11;96491.41;;;19.99;84.23
72677;BME280;60755;51.374;10.662;2023-09-18T08:00:41;96491.28;;;20.22;84.22
72677;BME280;60755;51.374;10.662;2023-09-18T08:03:08;96502.84;;;20.60;80.80
72677;BME280;60755;51.374;10.662;2023-09-18T08:05:36;96510.38;;;20.76;80.56
72677;BME280;60755;51.374;10.662;2023-09-18T08:08:04;96502.34;;;20.76;79.21
72677;BME280;60755;51.374;10.662;2023-09-18T08:10:32;96498.53;;;21.03;78.21
72677;BME280;60755;51.374;10.662;2023-09-18T08:12:59;96518.28;;;21.10;79.75
72677;BME280;60755;51.374;10.662;2023-09-18T08:15:26;96511.56;;;21.04;79.24
72677;BME280;60755;51.374;10.662;2023-09-18T08:17:56;96516.16;;;20.95;80.25
72677;BME280;60755;51.374;10.662;2023-09-18T08:20:26;96522.28;;;20.95;80.59
72677;BME280;60755;51.374;10.662;2023-09-18T08:22:54;96511.84;;;21.11;79.57
72677;BME280;60755;51.374;10.662;2023-09-18T08:25:22;96498.56;;;20.94;79.60
72677;BME280;60755;51.374;10.662;2023-09-18T08:27:49;96494.25;;;21.10;79.33
72677;BME280;60755;51.374;10.662;2023-09-18T08:30:16;96487.78;;;21.11;80.49
72677;BME280;60755;51.374;10.662;2023-09-18T08:32:46;96477.88;;;21.12;79.42
72677;BME280;60755;51.374;10.662;2023-09-18T08:35:15;96477.22;;;21.15;79.22
72677;BME280;60755;51.374;10.662;2023-09-18T08:37:43;96483.31;;;20.94;80.41
72677;BME280;60755;51.374;10.662;2023-09-18T08:40:11;96492.97;;;20.70;81.58
72677;BME280;60755;51.374;10.662;2023-09-18T08:42:41;96489.22;;;20.62;81.99
72677;BME280;60755;51.374;10.662;2023-09-18T08:45:15;96497.06;;;20.58;81.95
72677;BME280;60755;51.374;10.662;2023-09-18T08:47:46;96494.38;;;20.58;82.18
72677;BME280;60755;51.374;10.662;2023-09-18T08:50:15;96496.59;;;20.56;81.87
72677;BME280;60755;51.374;10.662;2023-09-18T08:52:43;96493.59;;;20.66;82.48
72677;BME280;60755;51.374;10.662;2023-09-18T08:55:11;96496.03;;;20.89;80.56
72677;BME280;60755;51.374;10.662;2023-09-18T08:57:39;96494.19;;;20.81;80.89
72677;BME280;60755;51.374;10.662;2023-09-18T09:00:10;96493.09;;;21.20;81.17
72677;BME280;60755;51.374;10.662;2023-09-18T09:02:43;96501.25;;;21.23;79.32
72677;BME280;60755;51.374;10.662;2023-09-18T09:05:10;96499.97;;;21.68;78.48
72677;BME280;60755;51.374;10.662;2023-09-18T09:07:39;96503.78;;;22.09;77.09
72677;BME280;60755;51.374;10.662;2023-09-18T09:10:07;96509.63;;;22.44;76.19
72677;BME280;60755;51.374;10.662;2023-09-18T09:12:55;96511.00;;;22.83;77.48
72677;BME280;60755;51.374;10.662;2023-09-18T09:15:25;96510.41;;;23.10;74.14
72677;BME280;60755;51.374;10.662;2023-09-18T09:18:02;96507.41;;;23.12;74.59
72677;BME280;60755;51.374;10.662;2023-09-18T09:20:30;96514.19;;;23.09;75.29
72677;BME280;60755;51.374;10.662;2023-09-18T09:23:03;96517.91;;;22.84;72.90
72677;BME280;60755;51.374;10.662;2023-09-18T09:25:31;96519.75;;;22.59;74.45
72677;BME280;60755;51.374;10.662;2023-09-18T09:28:00;96518.53;;;23.02;75.92
72677;BME280;60755;51.374;10.662;2023-09-18T09:30:29;96519.47;;;23.30;74.23
72677;BME280;60755;51.374;10.662;2023-09-18T09:32:58;96515.91;;;23.38;71.33
72677;BME280;60755;51.374;10.662;2023-09-18T09:35:29;96505.19;;;23.26;70.08
72677;BME280;60755;51.374;10.662;2023-09-18T09:37:58;96509.97;;;23.57;71.33
72677;BME280;60755;51.374;10.662;2023-09-18T09:40:30;96507.44;;;23.61;71.20
72677;BME280;60755;51.374;10.662;2023-09-18T09:42:58;96494.16;;;24.05;70.10
72677;BME280;60755;51.374;10.662;2023-09-18T09:45:29;96487.66;;;24.06;69.62
72677;BME280;60755;51.374;10.662;2023-09-18T09:48:01;96485.22;;;24.00;68.03
72677;BME280;60755;51.374;10.662;2023-09-18T09:50:31;96483.03;;;23.90;69.34
72677;BME280;60755;51.374;10.662;2023-09-18T09:52:59;96472.28;;;23.78;69.43
72677;BME280;60755;51.374;10.662;2023-09-18T09:55:28;96468.06;;;23.65;70.14
72677;BME280;60755;51.374;10.662;2023-09-18T09:57:58;96469.53;;;23.75;70.89
72677;BME280;60755;51.374;10.662;2023-09-18T10:00:29;96474.91;;;24.03;70.39
72677;BME280;60755;51.374;10.662;2023-09-18T10:03:01;96472.66;;;24.05;70.13
72677;BME280;60755;51.374;10.662;2023-09-18T10:05:31;96469.69;;;23.82;69.76
72677;BME280;60755;51.374;10.662;2023-09-18T10:08:04;96473.56;;;24.09;69.52
72677;BME280;60755;51.374;10.662;2023-09-18T10:10:35;96468.75;;;24.30;69.44
72677;BME280;60755;51.374;10.662;2023-09-18T10:13:09;96478.97;;;24.37;68.30
72677;BME280;60755;51.374;10.662;2023-09-18T10:15:38;96467.00;;;24.34;68.18
72677;BME280;60755;51.374;10.662;2023-09-18T10:18:19;96459.75;;;24.50;67.53
72677;BME280;60755;51.374;10.662;2023-09-18T10:20:51;96471.19;;;24.47;68.30
72677;BME280;60755;51.374;10.662;2023-09-18T10:23:34;96468.84;;;24.06;70.12
72677;BME280;60755;51.374;10.662;2023-09-18T10:26:07;96468.19;;;24.09;69.19
72677;BME280;60755;51.374;10.662;2023-09-18T10:28:37;96462.25;;;24.15;71.61
72677;BME280;60755;51.374;10.662;2023-09-18T10:31:07;96456.63;;;24.48;69.22
72677;BME280;60755;51.374;10.662;2023-09-18T10:33:35;96454.94;;;24.56;68.38
72677;BME280;60755;51.374;10.662;2023-09-18T10:36:04;96461.41;;;24.27;68.68
72677;BME280;60755;51.374;10.662;2023-09-18T10:38:34;96466.22;;;23.93;69.22
72677;BME280;60755;51.374;10.662;2023-09-18T10:41:02;96465.13;;;24.22;68.34
72677;BME280;60755;51.374;10.662;2023-09-18T10:43:31;96474.69;;;24.08;67.74
72677;BME280;60755;51.374;10.662;2023-09-18T10:45:59;96477.09;;;24.25;69.19
72677;BME280;60755;51.374;10.662;2023-09-18T10:48:27;96475.84;;;23.94;68.85
72677;BME280;60755;51.374;10.662;2023-09-18T10:50:55;96470.66;;;24.02;68.61
72677;BME280;60755;51.374;10.662;2023-09-18T10:53:25;96467.94;;;24.14;67.40
72677;BME280;60755;51.374;10.662;2023-09-18T10:55:53;96481.69;;;24.52;67.17
72677;BME280;60755;51.374;10.662;2023-09-18T10:58:24;96473.84;;;24.75;65.79
72677;BME280;60755;51.374;10.662;2023-09-18T11:00:54;96477.25;;;24.88;67.47
72677;BME280;60755;51.374;10.662;2023-09-18T11:03:24;96478.97;;;24.96;66.53
72677;BME280;60755;51.374;10.662;2023-09-18T11:06:05;96480.03;;;25.39;65.66
72677;BME280;60755;51.374;10.662;2023-09-18T11:08:34;96487.34;;;25.07;65.35
72677;BME280;60755;51.374;10.662;2023-09-18T11:11:03;96475.88;;;25.26;62.98
72677;BME280;60755;51.374;10.662;2023-09-18T11:13:38;96472.66;;;25.36;64.08
72677;BME280;60755;51.374;10.662;2023-09-18T11:16:33;96473.63;;;25.28;62.86
72677;BME280;60755;51.374;10.662;2023-09-18T11:19:09;96482.47;;;25.13;62.09
72677;BME280;60755;51.374;10.662;2023-09-18T11:21:36;96480.03;;;25.07;63.34
72677;BME280;60755;51.374;10.662;2023-09-18T11:24:05;96478.28;;;24.99;64.72
72677;BME280;60755;51.374;10.662;2023-09-18T11:26:40;96480.97;;;24.83;64.42
72677;BME280;60755;51.374;10.662;2023-09-18T11:29:09;96476.72;;;24.98;64.81
72677;BME280;60755;51.374;10.662;2023-09-18T11:31:41;96465.53;;;24.96;63.37
72677;BME280;60755;51.374;10.662;2023-09-18T11:34:13;96467.16;;;24.85;65.66
72677;BME280;60755;51.374;10.662;2023-09-18T11:36:40;96471.94;;;24.76;65.42
72677;BME280;60755;51.374;10.662;2023-09-18T11:39:08;96462.50;;;24.82;65.32
72677;BME280;60755;51.374;10.662;2023-09-18T11:41:38;96475.91;;;24.66;65.14
72677;BME280;60755;51.374;10.662;2023-09-18T11:44:32;96483.16;;;24.50;66.46
72677;BME280;60755;51.374;10.662;2023-09-18T11:47:02;96490.31;;;24.74;65.96
72677;BME280;60755;51.374;10.662;2023-09-18T11:49:35;96483.97;;;24.10;67.63
72677;BME280;60755;51.374;10.662;2023-09-18T11:52:02;96485.03;;;23.81;68.18
72677;BME280;60755;51.374;10.662;2023-09-18T11:54:32;96498.13;;;23.83;67.11
72677;BME280;60755;51.374;10.662;2023-09-18T11:57:04;96494.13;;;23.64;68.29
72677;BME280;60755;51.374;10.662;2023-09-18T11:59:37;96494.44;;;23.38;68.73
72677;BME280;60755;51.374;10.662;2023-09-18T12:02:05;96485.72;;;23.41;69.67
72677;BME280;60755;51.374;10.662;2023-09-18T12:04:35;96489.19;;;23.30;70.05
72677;BME280;60755;51.374;10.662;2023-09-18T12:07:04;96490.75;;;23.19;70.06
72677;BME280;60755;51.374;10.662;2023-09-18T12:09:32;96495.84;;;22.87;71.51
72677;BME280;60755;51.374;10.662;2023-09-18T12:12:00;96500.47;;;22.78;71.48
72677;BME280;60755;51.374;10.662;2023-09-18T12:14:31;96494.56;;;22.72;72.23
72677;BME280;60755;51.374;10.662;2023-09-18T12:16:59;96489.53;;;22.38;72.10
72677;BME280;60755;51.374;10.662;2023-09-18T12:19:28;96483.78;;;22.48;71.67
72677;BME280;60755;51.374;10.662;2023-09-18T12:21:57;96482.22;;;22.47;73.21
72677;BME280;60755;51.374;10.662;2023-09-18T12:24:25;96485.16;;;22.66;73.60
72677;BME280;60755;51.374;10.662;2023-09-18T12:26:53;96497.31;;;22.30;75.00
72677;BME280;60755;51.374;10.662;2023-09-18T12:29:21;96499.84;;;22.06;76.34
72677;BME280;60755;51.374;10.662;2023-09-18T12:31:49;96510.81;;;22.34;76.02
72677;BME280;60755;51.374;10.662;2023-09-18T12:34:19;96497.97;;;22.27;76.47
72677;BME280;60755;51.374;10.662;2023-09-18T12:36:47;96500.13;;;22.34;75.65
72677;BME280;60755;51.374;10.662;2023-09-18T12:39:16;96497.56;;;22.38;76.25
72677;BME280;60755;51.374;10.662;2023-09-18T12:41:45;96497.88;;;22.57;75.13
72677;BME280;60755;51.374;10.662;2023-09-18T12:44:14;96511.13;;;22.53;74.75
72677;BME280;60755;51.374;10.662;2023-09-18T12:46:43;96500.38;;;22.41;74.97
72677;BME280;60755;51.374;10.662;2023-09-18T12:49:17;96505.81;;;22.32;74.78
72677;BME280;60755;51.374;10.662;2023-09-18T12:51:54;96505.97;;;22.48;75.74
72677;BME280;60755;51.374;10.662;2023-09-18T12:54:38;96480.53;;;22.21;76.94